Time;durP1;ratioP1;P1;durP2;ratioP2;P2;SDS_P1;SDS_P2;PMS_P1;PMS_P2;Temp;Humidity;BMP_temperature;BMP_pressure;BME280_temperature;BME280_humidity;BME280_pressure;Samples;Min_cycle;Max_cycle;Signal;HPM_P1;HPM_P2
2021/09/20 00:02:16;;;;;;;7.80;4.65;;;;;;;14.90;66.44;101694.38;5094690;28;20039;-60
2021/09/20 00:04:44;;;;;;;11.52;5.70;;;;;;;14.87;65.20;101689.47;5093315;28;20109;-61
2021/09/20 00:07:12;;;;;;;7.85;5.00;;;;;;;14.77;65.42;101694.97;5093255;28;20532;-60
2021/09/20 00:09:39;;;;;;;10.77;4.90;;;;;;;14.68;65.42;101691.94;5092891;28;20040;-60
2021/09/20 00:12:07;;;;;;;8.30;4.95;;;;;;;14.61;65.72;101694.13;5067769;28;20044;-60
2021/09/20 00:14:35;;;;;;;7.95;5.43;;;;;;;14.64;65.79;101692.75;5093098;28;20040;-60
2021/09/20 00:17:02;;;;;;;8.05;4.82;;;;;;;14.66;66.12;101704.28;5093275;28;20044;-61
2021/09/20 00:19:30;;;;;;;7.10;4.60;;;;;;;14.63;65.78;101705.66;5087006;28;20052;-61
2021/09/20 00:21:58;;;;;;;9.23;5.45;;;;;;;14.58;65.45;101708.41;5092217;28;20044;-60
2021/09/20 00:24:25;;;;;;;9.85;5.90;;;;;;;14.49;65.60;101710.00;5086116;28;20040;-61
2021/09/20 00:26:53;;;;;;;8.65;5.47;;;;;;;14.41;66.33;101708.63;5093960;28;20069;-60
2021/09/20 00:29:20;;;;;;;10.20;5.95;;;;;;;14.42;66.01;101704.78;5093784;28;20445;-61
2021/09/20 00:31:48;;;;;;;9.30;5.70;;;;;;;14.42;66.84;101704.78;5085789;28;20098;-61
2021/09/20 00:34:16;;;;;;;10.20;6.40;;;;;;;14.46;66.07;101705.88;5089674;28;20135;-59
2021/09/20 00:36:43;;;;;;;9.48;5.65;;;;;;;14.47;66.97;101698.47;5093690;28;20486;-60
2021/09/20 00:39:11;;;;;;;9.63;6.32;;;;;;;14.49;66.12;101699.84;5093632;28;20055;-61
2021/09/20 00:41:39;;;;;;;7.95;5.25;;;;;;;14.52;66.91;101703.97;5086201;28;20040;-61
2021/09/20 00:44:06;;;;;;;8.65;5.35;;;;;;;14.57;65.59;101704.00;5093826;28;20407;-61
2021/09/20 00:46:34;;;;;;;7.78;4.88;;;;;;;14.59;66.73;101709.22;5093462;28;20036;-61
2021/09/20 00:49:04;;;;;;;8.77;6.20;;;;;;;14.54;65.48;101709.22;5093632;28;20040;-60
2021/09/20 00:51:31;;;;;;;9.20;5.95;;;;;;;14.46;65.74;101710.53;5089163;28;20051;-60
2021/09/20 00:53:59;;;;;;;8.02;5.95;;;;;;;14.32;66.32;101707.50;5093476;28;20063;-61
2021/09/20 00:56:27;;;;;;;11.65;6.47;;;;;;;14.25;66.31;101709.69;5092405;28;20050;-58
2021/09/20 00:58:56;;;;;;;8.70;6.20;;;;;;;14.18;66.56;101709.94;5093911;28;20036;-60
2021/09/20 01:01:24;;;;;;;10.30;6.82;;;;;;;14.17;66.48;101716.53;5091250;28;20410;-58
2021/09/20 01:03:52;;;;;;;11.10;6.93;;;;;;;14.21;66.44;101709.38;5093316;28;20090;-58
2021/09/20 01:06:19;;;;;;;11.07;5.82;;;;;;;14.18;66.52;101709.13;5091742;28;20044;-60
2021/09/20 01:08:47;;;;;;;9.52;5.80;;;;;;;14.10;66.50;101721.44;5093567;28;20459;-60
2021/09/20 01:11:15;;;;;;;9.57;5.82;;;;;;;14.09;67.05;101719.78;5086457;28;20055;-57
2021/09/20 01:13:42;;;;;;;8.32;5.70;;;;;;;14.15;66.50;101724.19;5073319;28;20097;-60
2021/09/20 01:16:10;;;;;;;8.50;5.00;;;;;;;14.20;66.86;101720.63;5093417;28;20375;-60
2021/09/20 01:18:38;;;;;;;11.80;5.85;;;;;;;14.25;66.24;101709.69;5092678;28;20036;-59
2021/09/20 01:21:06;;;;;;;9.40;6.30;;;;;;;14.17;65.98;101712.97;5087898;28;20101;-60
2021/09/20 01:23:34;;;;;;;6.95;4.55;;;;;;;14.09;66.85;101714.28;5092436;28;20040;-60
2021/09/20 01:26:02;;;;;;;8.23;5.03;;;;;;;14.09;66.51;101716.22;5092946;28;20036;-60
2021/09/20 01:28:29;;;;;;;8.23;5.75;;;;;;;14.06;66.57;101721.13;5092856;28;20044;-60
2021/09/20 01:30:57;;;;;;;9.20;5.45;;;;;;;14.09;66.45;101710.72;5092077;28;20041;-61
2021/09/20 01:33:25;;;;;;;8.40;5.03;;;;;;;14.03;66.08;101710.72;5081049;28;20044;-61
2021/09/20 01:35:52;;;;;;;7.03;4.68;;;;;;;14.05;66.51;101714.03;5087664;28;20055;-60
2021/09/20 01:38:20;;;;;;;7.25;4.55;;;;;;;14.01;66.39;101714.81;5092598;28;20071;-60
2021/09/20 01:40:48;;;;;;;7.70;5.28;;;;;;;13.99;65.75;101712.34;5082825;28;20351;-61
2021/09/20 01:43:16;;;;;;;9.88;6.07;;;;;;;13.96;65.77;101710.16;5092464;28;20438;-61
2021/09/20 01:45:46;;;;;;;9.02;5.07;;;;;;;13.91;66.07;101715.63;5092633;28;20403;-60
2021/09/20 01:48:16;;;;;;;8.60;5.03;;;;;;;13.91;65.86;101710.13;5092376;28;20051;-60
2021/09/20 01:50:45;;;;;;;7.95;4.75;;;;;;;13.91;65.94;101715.63;5085951;28;20036;-60
2021/09/20 01:53:13;;;;;;;7.30;4.75;;;;;;;13.86;66.07;101712.88;5077221;28;20497;-59
2021/09/20 01:55:41;;;;;;;8.27;4.78;;;;;;;13.83;65.80;101718.88;5092463;28;20048;-61
2021/09/20 01:58:09;;;;;;;9.00;5.78;;;;;;;13.86;65.81;101721.06;5092327;28;20044;-60
2021/09/20 02:00:43;;;;;;;8.63;4.95;;;;;;;13.76;65.58;101721.03;5090291;28;20048;-60
2021/09/20 02:03:12;;;;;;;8.13;5.32;;;;;;;13.67;65.75;101719.91;5089026;28;20040;-61
2021/09/20 02:05:40;;;;;;;7.50;4.70;;;;;;;13.70;65.99;101713.88;5091818;28;20446;-60
2021/09/20 02:08:08;;;;;;;11.30;5.82;;;;;;;13.70;65.45;101719.34;5092198;28;20040;-61
2021/09/20 02:10:35;;;;;;;8.35;5.20;;;;;;;13.64;65.38;101716.59;5091913;28;20047;-60
2021/09/20 02:13:03;;;;;;;7.68;5.25;;;;;;;13.61;65.45;101719.88;5078971;28;20102;-60
2021/09/20 02:15:31;;;;;;;8.48;4.80;;;;;;;13.61;65.91;101719.03;5092088;28;20040;-59
2021/09/20 02:17:58;;;;;;;9.32;4.85;;;;;;;13.60;65.41;101726.44;5091684;28;20525;-59
2021/09/20 02:20:26;;;;;;;9.00;5.22;;;;;;;13.54;65.15;101719.28;5091533;28;20430;-61
2021/09/20 02:22:54;;;;;;;11.60;5.70;;;;;;;13.41;65.71;101717.03;5084226;28;20035;-62
2021/09/20 02:25:23;;;;;;;8.60;5.20;;;;;;;13.41;66.46;101717.03;5086745;28;20040;-58
2021/09/20 02:27:51;;;;;;;7.75;4.85;;;;;;;13.54;66.72;101715.72;5084362;28;20519;-60
2021/09/20 02:30:18;;;;;;;9.43;5.45;;;;;;;13.62;65.81;101712.47;5085612;28;20487;-60
2021/09/20 02:32:46;;;;;;;8.85;5.53;;;;;;;13.58;65.20;101717.66;5089794;28;20090;-62
2021/09/20 02:35:14;;;;;;;9.35;5.75;;;;;;;13.41;65.56;101717.03;5076697;28;20071;-60
2021/09/20 02:37:42;;;;;;;7.18;4.70;;;;;;;13.33;66.43;101721.09;5076332;28;20048;-60
2021/09/20 02:40:11;;;;;;;8.00;5.40;;;;;;;13.35;66.17;101718.09;5091691;28;20048;-58
2021/09/20 02:42:39;;;;;;;10.38;5.20;;;;;;;13.37;66.32;101714.00;5091354;28;20039;-59
2021/09/20 02:45:07;;;;;;;8.93;5.55;;;;;;;13.25;66.54;101721.53;5085790;28;20044;-60
2021/09/20 02:47:36;;;;;;;10.82;5.68;;;;;;;13.26;67.05;101720.47;5089489;28;20448;-60
2021/09/20 02:50:05;;;;;;;10.20;5.88;;;;;;;13.27;66.55;101724.88;5090076;28;20052;-59
2021/09/20 02:52:33;;;;;;;9.63;5.70;;;;;;;13.27;66.34;101729.50;5091737;28;20164;-59
2021/09/20 02:55:01;;;;;;;9.60;5.90;;;;;;;13.25;66.35;101731.66;5087994;28;20046;-59
2021/09/20 02:57:28;;;;;;;8.63;5.65;;;;;;;13.24;66.22;101735.50;5091534;28;20513;-61
2021/09/20 02:59:56;;;;;;;8.23;5.30;;;;;;;13.13;66.83;101734.59;5091403;28;20487;-60
2021/09/20 03:02:23;;;;;;;9.70;6.00;;;;;;;13.03;67.32;101738.06;5090958;28;20042;-60
2021/09/20 03:04:51;;;;;;;8.15;5.35;;;;;;;13.02;67.34;101736.44;5088403;28;20051;-60
2021/09/20 03:07:19;;;;;;;9.55;5.43;;;;;;;13.01;67.24;101740.25;5091506;28;20074;-58
2021/09/20 03:09:47;;;;;;;8.25;5.07;;;;;;;12.99;66.98;101742.44;5091162;28;20044;-60
2021/09/20 03:12:14;;;;;;;9.98;5.25;;;;;;;13.03;66.51;101737.25;5091248;28;20051;-59
2021/09/20 03:14:42;;;;;;;8.65;5.40;;;;;;;13.07;66.05;101735.66;5091314;28;20040;-60
2021/09/20 03:17:10;;;;;;;8.65;5.60;;;;;;;13.04;66.55;101745.22;5081260;28;20495;-60
2021/09/20 03:19:37;;;;;;;10.18;5.47;;;;;;;12.90;66.60;101744.00;5091140;28;20077;-60
2021/09/20 03:22:05;;;;;;;10.27;5.43;;;;;;;12.90;66.73;101744.00;5091238;28;20043;-61
2021/09/20 03:24:33;;;;;;;9.80;5.72;;;;;;;12.86;66.26;101748.34;5090043;28;20052;-60
2021/09/20 03:27:00;;;;;;;9.43;5.60;;;;;;;12.77;67.19;101757.03;5079929;28;20128;-60
2021/09/20 03:29:28;;;;;;;9.80;5.70;;;;;;;12.73;67.01;101752.34;5090909;28;20033;-60
2021/09/20 03:31:55;;;;;;;9.13;5.53;;;;;;;12.53;67.07;101748.34;5090903;28;20111;-59
2021/09/20 03:34:23;;;;;;;10.90;5.47;;;;;;;12.50;68.02;101750.75;5089425;28;20049;-59
2021/09/20 03:36:51;;;;;;;9.43;5.95;;;;;;;12.46;67.64;101758.66;5087377;28;20048;-59
2021/09/20 03:39:18;;;;;;;10.15;6.00;;;;;;;12.52;67.65;101762.25;5083306;28;20036;-59
2021/09/20 03:41:46;;;;;;;9.82;5.70;;;;;;;12.49;67.66;101758.13;5081086;28;20134;-59
2021/09/20 03:44:13;;;;;;;9.15;5.63;;;;;;;12.53;67.63;101755.69;5090739;28;20040;-60
2021/09/20 03:46:41;;;;;;;8.15;4.85;;;;;;;12.52;67.64;101754.88;5090880;28;20039;-60
2021/09/20 03:49:09;;;;;;;9.20;5.70;;;;;;;12.61;66.96;101759.88;5088795;28;20089;-60
2021/09/20 03:51:36;;;;;;;8.48;5.20;;;;;;;12.67;66.82;101767.84;5091078;28;20040;-60
2021/09/20 03:54:04;;;;;;;7.80;5.20;;;;;;;12.60;66.76;101761.75;5091228;28;20492;-60
2021/09/20 03:56:32;;;;;;;10.00;5.60;;;;;;;12.57;66.73;101767.75;5090979;28;20060;-57
2021/09/20 03:58:59;;;;;;;8.48;5.63;;;;;;;12.57;67.61;101771.31;5082032;28;20398;-62
2021/09/20 04:01:27;;;;;;;10.38;5.97;;;;;;;12.51;67.20;101768.81;5092260;28;20085;-62
2021/09/20 04:03:55;;;;;;;10.48;6.07;;;;;;;12.41;67.31;101772.25;5094691;28;20102;-60
2021/09/20 04:06:22;;;;;;;8.10;5.10;;;;;;;12.43;67.15;101771.97;5094470;28;20123;-61
2021/09/20 04:08:50;;;;;;;8.60;5.05;;;;;;;12.40;67.71;101770.59;5086623;28;20058;-60
2021/09/20 04:11:17;;;;;;;9.82;6.00;;;;;;;12.42;67.35;101778.53;5094235;28;20051;-59
2021/09/20 04:13:45;;;;;;;10.00;6.03;;;;;;;12.27;67.60;101782.75;5094219;28;20047;-60
2021/09/20 04:16:13;;;;;;;10.25;6.35;;;;;;;12.18;68.67;101778.81;5094228;28;20130;-61
2021/09/20 04:18:40;;;;;;;8.50;5.55;;;;;;;12.08;68.12;101781.44;5089991;28;20039;-58
2021/09/20 04:21:08;;;;;;;9.23;5.28;;;;;;;12.15;68.95;101777.44;5098866;28;20406;-59
2021/09/20 04:23:35;;;;;;;8.57;5.85;;;;;;;12.17;67.57;101776.34;5100231;28;20409;-60
2021/09/20 04:26:03;;;;;;;9.77;5.50;;;;;;;12.16;68.00;101783.72;5099475;28;20028;-60
2021/09/20 04:28:31;;;;;;;8.38;5.03;;;;;;;12.11;68.66;101780.91;5092394;28;20044;-60
2021/09/20 04:30:58;;;;;;;8.35;5.80;;;;;;;12.14;68.41;101780.41;5093737;28;20047;-61
2021/09/20 04:33:26;;;;;;;11.43;6.47;;;;;;;12.16;67.65;101783.72;5092829;28;20131;-60
2021/09/20 04:35:53;;;;;;;8.50;5.15;;;;;;;12.14;68.95;101791.34;5093696;28;20114;-60
2021/09/20 04:38:21;;;;;;;10.27;6.38;;;;;;;12.11;67.84;101789.13;5093671;28;20070;-60
2021/09/20 04:40:49;;;;;;;9.07;5.88;;;;;;;12.07;68.31;101801.63;5080700;28;20506;-60
2021/09/20 04:43:18;;;;;;;9.35;6.05;;;;;;;12.01;69.44;101803.47;5093314;28;20040;-59
2021/09/20 04:45:46;;;;;;;9.10;6.03;;;;;;;12.04;69.46;101807.59;5093186;28;20051;-58
2021/09/20 04:48:14;;;;;;;9.50;6.20;;;;;;;11.94;69.76;101803.66;5085447;28;20115;-60
2021/09/20 04:50:44;;;;;;;9.65;6.10;;;;;;;11.92;69.99;101808.53;5093611;28;20044;-60
2021/09/20 04:53:13;;;;;;;9.57;6.53;;;;;;;11.91;69.60;101808.81;5078513;28;20048;-60
2021/09/20 04:55:42;;;;;;;9.40;5.82;;;;;;;11.91;69.60;101808.81;5093330;28;20059;-60
2021/09/20 04:58:11;;;;;;;10.82;6.32;;;;;;;11.90;69.49;101809.88;5088497;28;20043;-60
2021/09/20 05:00:40;;;;;;;11.57;6.35;;;;;;;11.73;70.24;101818.88;5093299;28;20036;-60
2021/09/20 05:03:08;;;;;;;11.48;6.53;;;;;;;11.69;70.50;101828.69;5093044;28;20490;-59
2021/09/20 05:05:36;;;;;;;10.02;6.40;;;;;;;11.70;71.36;101824.03;5093298;28;20449;-60
2021/09/20 05:08:04;;;;;;;11.00;6.40;;;;;;;11.80;70.90;101824.19;5080131;28;20048;-59
2021/09/20 05:10:32;;;;;;;10.20;6.68;;;;;;;11.88;70.63;101823.78;5091655;28;20056;-60
2021/09/20 05:12:59;;;;;;;10.60;6.65;;;;;;;11.90;70.47;101824.34;5092450;28;20036;-59
2021/09/20 05:15:27;;;;;;;11.35;6.60;;;;;;;11.91;69.86;101819.72;5093133;28;20115;-60
2021/09/20 05:17:55;;;;;;;9.80;6.45;;;;;;;11.86;70.84;101822.38;5082170;28;20059;-61
2021/09/20 05:20:23;;;;;;;10.48;6.80;;;;;;;11.89;70.38;101822.69;5089412;28;20055;-62
2021/09/20 05:22:51;;;;;;;9.05;6.60;;;;;;;11.96;70.05;101827.16;5094558;28;20047;-60
2021/09/20 05:25:19;;;;;;;10.30;6.60;;;;;;;11.97;70.71;101828.81;5095238;28;20042;-57
2021/09/20 05:27:46;;;;;;;10.90;7.53;;;;;;;11.96;70.32;101832.63;5086801;28;20040;-60
2021/09/20 05:30:14;;;;;;;11.00;6.65;;;;;;;11.90;69.81;101829.81;5095261;28;20044;-52
2021/09/20 05:32:42;;;;;;;11.40;6.20;;;;;;;11.83;70.06;101829.13;5093111;28;20095;-59
2021/09/20 05:35:11;;;;;;;11.20;6.90;;;;;;;11.79;70.61;101832.63;5094247;28;20064;-59
2021/09/20 05:37:40;;;;;;;12.75;7.82;;;;;;;11.73;70.65;101832.53;5088018;28;20141;-57
2021/09/20 05:40:08;;;;;;;11.63;7.15;;;;;;;11.60;71.76;101840.28;5092630;28;20040;-58
2021/09/20 05:42:36;;;;;;;10.93;6.70;;;;;;;11.76;71.78;101833.13;4385857;28;10000373;-59
2021/09/20 05:45:05;;;;;;;11.88;6.45;;;;;;;11.89;71.29;101833.63;5090454;28;20692;-60
2021/09/20 05:47:33;;;;;;;10.65;7.15;;;;;;;11.88;70.83;101842.06;5076988;28;20089;-60
2021/09/20 05:50:08;;;;;;;9.52;6.60;;;;;;;11.69;71.67;101844.25;5078984;28;20074;-61
2021/09/20 05:52:36;;;;;;;12.77;7.90;;;;;;;11.75;71.45;101848.69;5088645;28;20048;-58
2021/09/20 05:55:05;;;;;;;11.10;6.75;;;;;;;11.85;71.84;101850.72;5088793;28;20050;-61
2021/09/20 05:57:33;;;;;;;11.05;6.60;;;;;;;11.94;71.33;101847.34;5078036;28;20790;-60
2021/09/20 06:00:01;;;;;;;11.38;6.63;;;;;;;12.00;70.62;101851.00;5090420;28;20390;-60
2021/09/20 06:02:39;;;;;;;10.75;6.43;;;;;;;11.92;70.02;101849.50;5089873;28;20565;-59
2021/09/20 06:05:12;;;;;;;14.20;7.75;;;;;;;11.89;70.24;101844.56;5089860;28;20505;-60
2021/09/20 06:07:40;;;;;;;11.18;6.50;;;;;;;11.83;71.24;101850.97;5082365;28;20124;-59
2021/09/20 06:10:09;;;;;;;10.82;7.10;;;;;;;11.80;70.80;101853.41;5089466;28;20122;-58
2021/09/20 06:12:37;;;;;;;11.52;6.90;;;;;;;11.75;71.66;101859.59;5088006;28;20051;-60
2021/09/20 06:15:07;;;;;;;13.05;7.15;;;;;;;11.72;72.11;101860.13;5089742;28;20114;-59
2021/09/20 06:17:36;;;;;;;12.10;7.75;;;;;;;11.84;71.72;101860.84;5088120;28;20043;-62
2021/09/20 06:20:05;;;;;;;10.93;6.25;;;;;;;11.82;71.82;101865.72;5086821;28;20035;-58
2021/09/20 06:22:33;;;;;;;10.27;7.10;;;;;;;11.86;71.44;101866.88;5089452;28;20040;-61
2021/09/20 06:25:02;;;;;;;10.52;7.07;;;;;;;11.88;71.37;101863.91;5089547;28;20490;-58
2021/09/20 06:27:29;;;;;;;13.23;7.20;;;;;;;11.92;71.41;101865.06;5087916;28;20101;-60
2021/09/20 06:29:57;;;;;;;11.43;6.93;;;;;;;11.93;71.10;101872.19;5087642;28;20141;-58
2021/09/20 06:32:25;;;;;;;10.98;6.65;;;;;;;12.02;71.81;101876.13;5090422;28;20048;-59
2021/09/20 06:34:52;;;;;;;11.63;7.20;;;;;;;12.00;71.32;101869.28;5090635;28;20040;-58
2021/09/20 06:37:20;;;;;;;14.13;7.32;;;;;;;11.97;70.98;101872.50;5089334;28;20139;-57
2021/09/20 06:39:48;;;;;;;13.07;6.38;;;;;;;11.98;71.45;101874.16;5088131;28;20585;-57
2021/09/20 06:42:15;;;;;;;11.00;7.07;;;;;;;11.86;71.88;101866.88;5089634;28;20445;-59
2021/09/20 06:44:50;;;;;;;15.60;8.00;;;;;;;11.80;72.61;101867.88;5090247;28;20063;-58
2021/09/20 06:47:19;;;;;;;11.60;6.68;;;;;;;11.80;72.64;101873.34;5088788;28;20052;-58
2021/09/20 06:49:47;;;;;;;10.82;6.68;;;;;;;11.91;72.94;101869.72;5067861;28;20044;-58
2021/09/20 06:52:15;;;;;;;12.07;7.47;;;;;;;11.89;72.14;101869.13;5071284;28;20118;-58
2021/09/20 06:54:43;;;;;;;12.15;7.65;;;;;;;12.00;72.52;101869.28;5087210;28;20051;-60
2021/09/20 06:57:10;;;;;;;11.57;7.40;;;;;;;12.02;71.90;101872.59;5089674;28;20135;-60
2021/09/20 06:59:39;;;;;;;11.25;7.07;;;;;;;12.13;72.36;101871.66;5089203;28;20043;-53
2021/09/20 07:02:07;;;;;;;10.40;6.60;;;;;;;12.20;71.84;101877.75;5081351;28;20120;-59
2021/09/20 07:04:35;;;;;;;14.27;7.55;;;;;;;12.19;72.00;101886.19;5088566;28;20536;-58
2021/09/20 07:07:03;;;;;;;14.60;7.63;;;;;;;12.14;71.90;101873.28;5089415;28;20032;-59
2021/09/20 07:09:30;;;;;;;19.88;8.63;;;;;;;12.20;72.09;101887.88;5088640;28;20040;-59
2021/09/20 07:11:59;;;;;;;13.75;8.10;;;;;;;12.16;71.64;101876.59;5084852;28;20055;-59
2021/09/20 07:14:27;;;;;;;11.32;7.85;;;;;;;12.11;72.60;101879.28;5089243;28;20785;-60
2021/09/20 07:16:55;;;;;;;12.75;8.02;;;;;;;12.16;72.49;101871.13;5088886;28;20123;-59
2021/09/20 07:19:23;;;;;;;20.25;7.72;;;;;;;12.13;72.94;101882.56;5089440;28;20044;-59
2021/09/20 07:21:50;;;;;;;22.13;8.45;;;;;;;12.29;72.45;101881.72;5084502;28;20044;-59
2021/09/20 07:24:18;;;;;;;11.82;8.20;;;;;;;12.41;71.69;101878.00;5090876;28;20044;-59
2021/09/20 07:26:46;;;;;;;16.50;8.70;;;;;;;12.42;71.10;101887.88;5091048;28;20044;-59
2021/09/20 07:29:13;;;;;;;14.93;8.43;;;;;;;12.40;71.26;101892.75;5091214;28;20028;-59
2021/09/20 07:31:41;;;;;;;21.67;7.43;;;;;;;12.46;72.59;101898.03;5081338;28;20040;-57
2021/09/20 07:34:09;;;;;;;21.13;8.27;;;;;;;12.61;70.58;101902.88;5089797;28;20097;-58
2021/09/20 07:36:36;;;;;;;13.38;8.13;;;;;;;12.70;69.30;101904.06;5094538;28;20068;-58
2021/09/20 07:39:04;;;;;;;13.48;7.85;;;;;;;12.81;69.32;101904.19;5094541;28;20120;-59
2021/09/20 07:41:33;;;;;;;16.80;8.00;;;;;;;12.78;69.79;101908.25;5090144;28;20494;-57
2021/09/20 07:44:00;;;;;;;11.82;7.90;;;;;;;12.75;69.38;101906.06;5089072;28;20038;-55
2021/09/20 07:46:29;;;;;;;11.98;8.05;;;;;;;12.78;69.27;101917.28;5094897;28;20036;-58
2021/09/20 07:48:58;;;;;;;12.90;7.60;;;;;;;12.75;68.92;101923.28;5094788;28;20036;-57
2021/09/20 07:51:25;;;;;;;13.70;7.88;;;;;;;12.60;70.05;101914.88;5089515;28;20036;-59
2021/09/20 07:53:53;;;;;;;10.73;7.30;;;;;;;12.61;69.43;101916.53;5083484;28;20048;-56
2021/09/20 07:56:21;;;;;;;21.17;8.43;;;;;;;12.69;70.06;101921.56;5085201;28;20032;-54
2021/09/20 07:58:48;;;;;;;13.48;8.10;;;;;;;12.75;69.16;101930.66;5094516;28;20114;-60
2021/09/20 08:01:16;;;;;;;13.52;8.07;;;;;;;12.81;69.74;101932.34;5080028;28;20041;-59
2021/09/20 08:03:44;;;;;;;17.58;7.82;;;;;;;12.86;69.78;101931.59;5094335;28;20044;-58
2021/09/20 08:06:12;;;;;;;12.65;7.72;;;;;;;12.87;69.44;101942.28;5094122;28;20051;-60
2021/09/20 08:08:39;;;;;;;14.85;7.70;;;;;;;12.93;69.94;101938.50;5094190;28;20079;-60
2021/09/20 08:11:07;;;;;;;11.73;8.18;;;;;;;12.99;69.71;101944.88;5082599;28;20049;-60
2021/09/20 08:13:35;;;;;;;12.77;8.05;;;;;;;12.95;69.82;101941.00;5092907;28;20047;-58
2021/09/20 08:16:02;;;;;;;13.18;8.23;;;;;;;12.93;69.21;101945.91;5089497;28;20094;-58
2021/09/20 08:18:30;;;;;;;11.75;7.93;;;;;;;12.87;68.86;101947.75;5092554;28;20110;-59
2021/09/20 08:20:58;;;;;;;11.55;8.50;;;;;;;12.93;69.06;101954.94;5089319;28;20056;-59
2021/09/20 08:23:27;;;;;;;14.50;8.05;;;;;;;12.96;69.36;101950.84;5086780;28;20079;-58
2021/09/20 08:25:55;;;;;;;12.57;7.90;;;;;;;12.87;68.58;101953.22;5093988;28;20044;-59
2021/09/20 08:28:23;;;;;;;14.68;9.07;;;;;;;12.94;69.07;101958.47;5094141;28;20040;-58
2021/09/20 08:30:50;;;;;;;12.55;8.88;;;;;;;12.94;68.33;101953.00;5087676;28;20478;-59
2021/09/20 08:33:18;;;;;;;13.65;8.93;;;;;;;12.99;68.54;101961.31;5093782;28;20048;-58
2021/09/20 08:35:46;;;;;;;14.02;8.55;;;;;;;13.03;68.18;101958.88;5092881;28;20067;-58
2021/09/20 08:38:15;;;;;;;12.85;8.75;;;;;;;13.07;67.60;101960.84;5094102;28;20098;-61
2021/09/20 08:40:42;;;;;;;15.07;8.32;;;;;;;13.22;68.87;101966.47;5090981;28;20052;-54
2021/09/20 08:43:10;;;;;;;14.52;7.68;;;;;;;13.37;68.17;101962.25;5092393;28;20036;-59
2021/09/20 08:45:38;;;;;;;13.73;8.65;;;;;;;13.42;66.78;101965.03;5091957;28;20074;-60
2021/09/20 08:48:06;;;;;;;12.65;7.43;;;;;;;13.47;67.20;101977.97;5078492;28;20043;-60
2021/09/20 08:50:35;;;;;;;12.15;7.25;;;;;;;13.49;66.21;101973.06;5081860;28;20395;-61
2021/09/20 08:53:05;;;;;;;13.25;7.78;;;;;;;13.53;65.63;101972.28;5090828;28;20133;-58
2021/09/20 08:55:33;;;;;;;16.45;9.13;;;;;;;13.53;65.39;101975.00;5078937;28;21102;-59
2021/09/20 08:58:01;;;;;;;13.07;8.32;;;;;;;13.60;65.65;101972.88;5078298;28;20068;-59
2021/09/20 09:00:29;;;;;;;11.77;7.78;;;;;;;13.64;65.87;101985.00;5093511;28;20043;-55
2021/09/20 09:02:59;;;;;;;14.10;6.53;;;;;;;13.75;69.73;101976.84;5092650;28;20352;-58
2021/09/20 09:05:30;;;;;;;12.27;8.63;;;;;;;13.70;64.69;101985.84;5092856;28;20044;-58
2021/09/20 09:08:00;;;;;;;13.18;8.32;;;;;;;13.69;64.88;101981.47;5085229;28;20048;-59
2021/09/20 09:10:30;;;;;;;14.50;8.82;;;;;;;13.74;65.60;101977.94;5085003;28;20549;-58
2021/09/20 09:13:00;;;;;;;13.15;7.38;;;;;;;13.74;64.47;101983.44;5091577;28;20044;-59
2021/09/20 09:15:28;;;;;;;17.88;8.82;;;;;;;13.83;65.44;101987.34;5085572;28;20046;-57
2021/09/20 09:17:57;;;;;;;13.30;6.85;;;;;;;13.79;65.79;101987.03;5082862;28;20044;-54
2021/09/20 09:20:27;;;;;;;11.60;8.27;;;;;;;13.83;65.31;101990.91;5088462;28;20488;-60
2021/09/20 09:23:07;;;;;;;14.35;9.65;;;;;;;13.93;65.40;101997.56;5093206;28;20075;-59
2021/09/20 09:25:39;;;;;;;13.95;6.70;;;;;;;13.98;67.29;102003.91;5092807;28;20065;-58
2021/09/20 09:28:17;;;;;;;8.80;5.47;;;;;;;13.98;65.02;102003.91;5092426;28;20398;-58
2021/09/20 09:30:52;;;;;;;12.43;6.70;;;;;;;13.92;64.76;102006.84;5089371;28;20032;-57
2021/09/20 09:33:22;;;;;;;14.88;8.52;;;;;;;13.90;63.56;102009.84;5092517;28;20498;-58
2021/09/20 09:35:53;;;;;;;15.57;9.02;;;;;;;13.88;63.73;102006.56;5092349;28;20048;-60
2021/09/20 09:38:22;;;;;;;16.75;8.48;;;;;;;13.87;63.81;102013.13;5093060;28;20097;-58
2021/09/20 09:40:54;;;;;;;16.27;8.60;;;;;;;13.90;63.96;102009.03;5091560;28;20121;-58
2021/09/20 09:43:27;;;;;;;19.40;8.48;;;;;;;13.93;63.73;102011.25;5091169;28;20067;-57
2021/09/20 09:45:56;;;;;;;13.40;8.77;;;;;;;13.92;62.87;102007.66;5092713;28;20047;-57
2021/09/20 09:48:28;;;;;;;13.77;8.32;;;;;;;13.98;63.32;102012.13;5092073;28;20048;-57
2021/09/20 09:50:59;;;;;;;12.40;8.32;;;;;;;14.02;63.12;102017.88;5081465;28;20045;-58
2021/09/20 09:53:38;;;;;;;12.38;7.82;;;;;;;14.18;62.82;102022.41;5092635;28;20048;-59
2021/09/20 09:56:17;;;;;;;11.02;7.32;;;;;;;14.21;63.70;102016.38;5091440;28;20044;-59
2021/09/20 09:59:05;;;;;;;11.15;7.07;;;;;;;14.25;63.39;102011.22;5091067;28;20490;-58
2021/09/20 10:01:38;;;;;;;15.85;9.63;;;;;;;14.34;66.19;102009.66;5084560;28;20040;-58
2021/09/20 10:04:13;;;;;;;14.05;8.55;;;;;;;14.35;63.13;102011.28;5076847;28;20048;-58
2021/09/20 10:06:41;;;;;;;12.10;7.15;;;;;;;14.41;62.39;102015.72;5091188;28;20042;-58
2021/09/20 10:09:10;;;;;;;13.13;9.25;;;;;;;14.45;63.23;102010.53;5092124;28;20036;-59
2021/09/20 10:11:40;;;;;;;11.45;8.00;;;;;;;14.44;62.11;102020.66;5088100;28;20048;-59
2021/09/20 10:14:08;;;;;;;12.05;7.78;;;;;;;14.40;61.74;102014.06;5092454;28;20127;-58
2021/09/20 10:16:36;;;;;;;12.32;7.50;;;;;;;14.46;62.65;102007.53;5091626;28;21075;-59
2021/09/20 10:19:04;;;;;;;11.55;8.88;;;;;;;14.45;61.19;102003.13;5091393;28;20040;-58
2021/09/20 10:21:33;;;;;;;15.02;8.50;;;;;;;14.48;60.32;101999.88;5090871;28;20398;-57
2021/09/20 10:24:01;;;;;;;10.98;5.95;;;;;;;14.52;61.09;102002.06;5089540;28;20036;-59
2021/09/20 10:26:30;;;;;;;15.57;9.60;;;;;;;14.59;62.35;102006.25;5091771;28;20119;-58
2021/09/20 10:28:59;;;;;;;15.93;9.02;;;;;;;14.63;62.39;102003.81;5091889;28;20040;-59
2021/09/20 10:31:28;;;;;;;9.73;5.07;;;;;;;14.74;65.42;102002.75;5087556;28;20044;-57
2021/09/20 10:34:17;;;;;;;12.98;7.07;;;;;;;14.81;66.55;102002.50;5085452;28;20105;-58
2021/09/20 10:37:12;;;;;;;16.02;7.68;;;;;;;14.88;60.29;102006.66;5092052;28;20056;-51
2021/09/20 10:39:48;;;;;;;14.77;8.02;;;;;;;14.91;58.94;102002.56;5078403;28;20036;-55
2021/09/20 10:42:34;;;;;;;;;;;;;;;14.95;64.71;102014.66;5087389;28;20054;-60
2021/09/20 10:45:30;;;;;;;11.80;7.30;;;;;;;14.91;58.68;101997.91;5091407;28;19959;-59
2021/09/20 10:48:05;;;;;;;11.82;6.10;;;;;;;14.99;61.21;101998.50;5090911;28;20040;-56
2021/09/20 10:50:46;;;;;;;12.95;6.82;;;;;;;15.05;59.76;102002.88;5090250;28;20044;-61
2021/09/20 10:53:42;;;;;;;12.82;6.13;;;;;;;15.22;59.28;101992.50;5079433;28;20036;-59
2021/09/20 10:56:11;;;;;;;;;;;;;;;15.17;56.87;101994.41;5092512;28;20051;-56
2021/09/20 10:58:54;;;;;;;12.50;8.20;;;;;;;15.10;60.17;101991.91;5092177;28;19938;-58
2021/09/20 11:01:25;;;;;;;11.80;7.00;;;;;;;15.25;60.82;101997.47;5091582;28;20028;-59
2021/09/20 11:03:56;;;;;;;9.85;5.13;;;;;;;15.32;60.90;101998.03;5084431;28;20434;-56
2021/09/20 11:06:25;;;;;;;8.90;5.20;;;;;;;15.37;63.11;102004.63;5078366;28;20064;-59
2021/09/20 11:08:59;;;;;;;10.90;6.20;;;;;;;15.32;57.08;101998.03;5095676;28;20043;-56
2021/09/20 11:11:42;;;;;;;10.77;6.22;;;;;;;15.32;57.84;102003.53;5095426;28;20052;-58
2021/09/20 11:14:18;;;;;;;9.45;5.70;;;;;;;15.43;58.25;102003.53;5091481;28;20044;-58
2021/09/20 11:16:49;;;;;;;10.20;5.80;;;;;;;15.41;54.94;102001.06;5093214;28;20240;-58
2021/09/20 11:19:40;;;;;;;11.40;6.47;;;;;;;15.39;53.33;101999.69;5094092;28;20048;-58
2021/09/20 11:24:37;;;;;;;10.30;7.05;;;;;;;15.38;56.53;102006.28;5093040;28;20044;-58
2021/09/20 11:27:12;;;;;;;12.20;6.25;;;;;;;15.41;56.03;102000.25;5090141;28;20040;-57
2021/09/20 11:29:40;;;;;;;10.07;6.20;;;;;;;15.35;53.95;102002.16;5095088;28;20054;-58
2021/09/20 11:32:08;;;;;;;8.10;5.00;;;;;;;15.32;53.23;102006.28;5094960;28;20040;-59
2021/09/20 11:34:48;;;;;;;8.20;4.72;;;;;;;15.41;54.02;102005.72;5094797;28;20043;-56